Time;durP1;ratioP1;P1;durP2;ratioP2;P2;SDS_P1;SDS_P2;PMS_P1;PMS_P2;Temp;Humidity;BMP_temperature;BMP_pressure;BME280_temperature;BME280_humidity;BME280_pressure;Samples;Min_cycle;Max_cycle;Signal;HPM_P1;HPM_P2
2023/02/18 00:01:30;;;;;;;35.63;17.90;;;10.50;99.90;;;;;;4851015;29;20145;-77
2023/02/18 00:04:01;;;;;;;35.60;17.45;;;10.50;99.90;;;;;;4858824;29;20579;-77
2023/02/18 00:06:31;;;;;;;41.30;19.95;;;10.50;99.90;;;;;;4851819;29;20064;-77
2023/02/18 00:09:01;;;;;;;46.55;21.55;;;10.40;99.90;;;;;;4830381;29;20102;-77
2023/02/18 00:11:31;;;;;;;38.00;17.98;;;10.40;99.90;;;;;;4852107;29;20566;-77
2023/02/18 00:14:00;;;;;;;32.55;16.65;;;10.40;99.90;;;;;;4830726;29;20066;-77
2023/02/18 00:16:31;;;;;;;41.38;17.30;;;10.40;99.90;;;;;;4862284;29;20041;-77
2023/02/18 00:19:03;;;;;;;39.20;18.63;;;10.40;99.90;;;;;;4861538;29;20069;-77
2023/02/18 00:21:32;;;;;;;41.92;20.65;;;10.40;99.90;;;;;;4862340;29;20069;-77
2023/02/18 00:24:00;;;;;;;40.60;18.08;;;10.40;99.90;;;;;;4845650;29;20462;-77
2023/02/18 00:26:27;;;;;;;44.80;19.90;;;10.30;99.90;;;;;;4830683;29;20142;-77
2023/02/18 00:28:57;;;;;;;38.33;18.92;;;10.30;99.90;;;;;;4837465;29;20049;-77
2023/02/18 00:31:36;;;;;;;41.45;18.58;;;10.30;99.90;;;;;;4857268;29;20047;-77
2023/02/18 00:34:04;;;;;;;46.75;21.23;;;10.30;99.90;;;;;;4860788;29;20053;-78
2023/02/18 00:36:33;;;;;;;41.85;19.45;;;10.30;99.90;;;;;;4832674;29;20456;-78
2023/02/18 00:39:08;;;;;;;46.83;19.85;;;10.30;99.90;;;;;;4837759;29;20137;-77
2023/02/18 00:41:35;;;;;;;52.08;21.67;;;10.20;99.90;;;;;;4831762;29;20079;-77
2023/02/18 00:44:02;;;;;;;45.40;20.58;;;10.30;99.90;;;;;;4827165;29;20405;-78
2023/02/18 00:46:30;;;;;;;46.85;20.63;;;10.30;99.90;;;;;;4845352;29;20049;-78
2023/02/18 00:49:15;;;;;;;42.13;20.52;;;10.30;99.90;;;;;;4840938;29;20498;-78
2023/02/18 00:51:49;;;;;;;50.45;20.65;;;10.30;99.90;;;;;;4834471;29;20049;-78
2023/02/18 00:54:16;;;;;;;40.95;20.52;;;10.30;99.90;;;;;;4853802;29;20412;-79
2023/02/18 00:56:46;;;;;;;41.38;19.15;;;10.30;99.90;;;;;;4838632;29;20108;-78
2023/02/18 00:59:13;;;;;;;41.20;18.10;;;10.30;99.90;;;;;;4829959;29;20106;-78
2023/02/18 01:01:40;;;;;;;40.38;17.63;;;10.30;99.90;;;;;;4832847;29;20083;-78
2023/02/18 01:04:10;;;;;;;45.85;19.00;;;10.30;99.90;;;;;;4828017;29;20050;-78
2023/02/18 01:06:37;;;;;;;47.40;20.58;;;10.30;99.90;;;;;;4846628;29;20060;-78
2023/02/18 01:09:05;;;;;;;46.72;19.77;;;10.30;99.90;;;;;;4816874;29;20054;-78
2023/02/18 01:11:32;;;;;;;36.65;17.95;;;10.30;99.90;;;;;;4839507;29;20401;-78
2023/02/18 01:13:59;;;;;;;36.20;17.58;;;10.30;99.90;;;;;;4853013;29;20129;-78
2023/02/18 01:16:28;;;;;;;46.33;20.45;;;10.30;99.90;;;;;;4859282;29;20046;-78
2023/02/18 01:18:56;;;;;;;42.75;19.60;;;10.30;99.90;;;;;;4844895;29;20820;-78
2023/02/18 01:21:25;;;;;;;40.55;19.20;;;10.30;99.90;;;;;;4830352;29;20041;-78
2023/02/18 01:23:52;;;;;;;41.97;17.67;;;10.30;99.90;;;;;;4841448;29;20114;-78
2023/02/18 01:26:19;;;;;;;42.88;18.52;;;10.30;99.90;;;;;;4855973;29;20402;-78
2023/02/18 01:28:46;;;;;;;40.17;18.35;;;10.30;99.90;;;;;;4851032;29;20069;-78
2023/02/18 01:31:13;;;;;;;33.75;16.90;;;10.30;99.90;;;;;;4831641;29;20054;-78
2023/02/18 01:33:41;;;;;;;35.08;16.58;;;10.30;99.90;;;;;;4823883;29;20589;-79
2023/02/18 01:36:09;;;;;;;29.33;13.95;;;10.30;99.90;;;;;;4826661;29;20088;-79
2023/02/18 01:38:38;;;;;;;33.13;14.75;;;10.30;99.90;;;;;;4859000;29;20057;-79
2023/02/18 01:41:05;;;;;;;34.38;13.98;;;10.40;99.90;;;;;;4867832;29;20057;-78
2023/02/18 01:43:33;;;;;;;37.13;14.98;;;10.40;99.90;;;;;;4846537;29;20069;-78
2023/02/18 01:46:12;;;;;;;35.13;16.08;;;10.40;99.90;;;;;;4835446;29;20077;-78
2023/02/18 01:48:49;;;;;;;33.25;14.88;;;10.40;99.90;;;;;;4853972;29;20488;-79
2023/02/18 01:51:24;;;;;;;41.85;15.38;;;10.40;99.90;;;;;;4836602;29;20042;-78
2023/02/18 01:54:15;;;;;;;33.55;15.93;;;10.40;99.90;;;;;;4860744;29;20046;-78
2023/02/18 01:57:03;;;;;;;35.05;17.35;;;10.40;99.90;;;;;;4831519;29;20499;-78
2023/02/18 01:59:37;;;;;;;36.42;17.90;;;10.40;99.90;;;;;;4849346;29;20152;-78
2023/02/18 02:02:07;;;;;;;34.13;15.60;;;10.40;99.90;;;;;;4829093;29;20540;-78
2023/02/18 02:04:34;;;;;;;30.45;15.52;;;10.40;99.90;;;;;;4844195;29;20046;-78
2023/02/18 02:07:02;;;;;;;33.13;16.00;;;10.40;99.90;;;;;;4816181;29;20102;-78
2023/02/18 02:09:31;;;;;;;35.33;15.00;;;10.40;99.90;;;;;;4846634;29;20042;-79
2023/02/18 02:12:41;;;;;;;28.63;15.15;;;10.30;99.90;;;;;;4856147;29;20429;-79
2023/02/18 02:15:20;;;;;;;33.30;16.50;;;10.40;99.90;;;;;;4844443;29;20562;-78
2023/02/18 02:17:59;;;;;;;38.55;18.00;;;10.30;99.90;;;;;;4851908;29;20561;-79
2023/02/18 02:21:00;;;;;;;35.20;15.93;;;10.40;99.90;;;;;;4863890;29;20093;-79
2023/02/18 02:23:55;;;;;;;43.17;21.60;;;10.30;99.90;;;;;;4844090;29;20077;-79
2023/02/18 02:27:10;;;;;;;43.50;20.65;;;10.30;99.90;;;;;;4844985;29;20110;-79
2023/02/18 02:30:02;;;;;;;48.20;22.27;;;10.30;99.90;;;;;;4805220;29;20051;-79
2023/02/18 02:32:47;;;;;;;50.58;23.27;;;10.20;99.90;;;;;;4828507;29;20061;-79
2023/02/18 02:35:18;;;;;;;45.80;22.45;;;10.20;99.90;;;;;;4846797;29;20148;-79
2023/02/18 02:38:01;;;;;;;47.17;19.88;;;10.20;99.90;;;;;;4857284;29;20520;-78
2023/02/18 02:40:51;;;;;;;46.90;20.85;;;10.20;99.90;;;;;;4834687;29;20430;-79
2023/02/18 02:43:39;;;;;;;47.95;22.10;;;10.20;99.90;;;;;;4863469;29;20061;-78
2023/02/18 02:46:31;;;;;;;47.80;20.70;;;10.20;99.90;;;;;;4848561;29;20095;-79
2023/02/18 02:49:13;;;;;;;49.25;23.35;;;10.20;99.90;;;;;;4835963;29;20127;-79
2023/02/18 02:51:52;;;;;;;58.67;24.27;;;10.20;99.90;;;;;;4837313;29;20090;-78
2023/02/18 02:54:23;;;;;;;52.15;23.33;;;10.20;99.90;;;;;;4847433;29;20049;-79
2023/02/18 02:57:17;;;;;;;51.80;24.63;;;10.20;99.90;;;;;;4847198;29;20050;-79
2023/02/18 03:00:10;;;;;;;55.67;24.20;;;10.30;99.90;;;;;;4849430;29;20072;-79
2023/02/18 03:02:52;;;;;;;51.85;24.60;;;10.20;99.90;;;;;;4846998;29;20134;-78
2023/02/18 03:05:31;;;;;;;61.75;26.98;;;10.20;99.90;;;;;;4847187;29;20060;-79
2023/02/18 03:08:31;;;;;;;55.92;24.48;;;10.30;99.90;;;;;;4833262;29;20418;-79
2023/02/18 03:11:17;;;;;;;62.03;27.98;;;10.30;99.90;;;;;;4813580;29;20426;-78
2023/02/18 03:14:10;;;;;;;65.13;27.42;;;10.40;99.90;;;;;;4847190;29;20469;-79
2023/02/18 03:16:48;;;;;;;64.13;26.40;;;10.40;99.90;;;;;;4862507;29;20497;-79
2023/02/18 03:19:22;;;;;;;65.50;27.00;;;10.40;99.90;;;;;;4852687;29;20132;-79
2023/02/18 03:22:06;;;;;;;64.85;26.77;;;10.40;99.90;;;;;;4835681;29;20049;-78
2023/02/18 03:24:39;;;;;;;71.30;29.25;;;10.40;99.90;;;;;;4861985;29;20499;-79
2023/02/18 03:27:30;;;;;;;63.20;27.10;;;10.50;99.90;;;;;;4847091;29;20124;-79
2023/02/18 03:30:09;;;;;;;71.47;30.05;;;10.50;99.90;;;;;;4862889;29;20045;-79
2023/02/18 03:32:36;;;;;;;60.55;24.42;;;10.50;99.90;;;;;;4851156;29;20046;-79
2023/02/18 03:35:13;;;;;;;56.30;24.80;;;10.50;99.90;;;;;;4856727;29;20045;-79
2023/02/18 03:37:49;;;;;;;55.92;24.05;;;10.50;99.90;;;;;;4827744;29;20058;-80
2023/02/18 03:40:18;;;;;;;53.28;24.33;;;10.60;99.90;;;;;;4859558;29;20136;-79
2023/02/18 03:42:45;;;;;;;55.88;23.10;;;10.50;99.90;;;;;;4854182;29;20054;-79
2023/02/18 03:45:12;;;;;;;51.65;22.10;;;10.50;99.90;;;;;;4831257;29;20057;-79
2023/02/18 03:47:40;;;;;;;50.03;22.27;;;10.60;99.90;;;;;;4846738;29;20049;-80
2023/02/18 03:50:10;;;;;;;49.55;20.40;;;10.60;99.90;;;;;;4858261;29;20045;-79
2023/02/18 03:52:37;;;;;;;45.83;18.25;;;10.60;99.90;;;;;;4830939;29;20059;-80
2023/02/18 03:55:05;;;;;;;40.15;18.70;;;10.60;99.90;;;;;;4847839;29;20055;-80
2023/02/18 03:57:32;;;;;;;40.47;18.48;;;10.60;99.90;;;;;;4851147;29;20053;-79
2023/02/18 03:59:59;;;;;;;35.55;16.10;;;10.60;99.90;;;;;;4834123;29;20145;-80
2023/02/18 04:02:26;;;;;;;33.58;15.82;;;10.60;99.90;;;;;;4847928;29;20085;-80
2023/02/18 04:04:53;;;;;;;35.85;16.52;;;10.60;99.90;;;;;;4828226;29;20053;-80
2023/02/18 04:07:20;;;;;;;30.20;15.13;;;10.60;99.90;;;;;;4842939;29;20042;-79
2023/02/18 04:09:48;;;;;;;27.42;12.23;;;10.60;99.90;;;;;;4837008;29;20073;-80
2023/02/18 04:12:18;;;;;;;26.15;12.35;;;10.60;99.90;;;;;;4863412;29;20041;-80
2023/02/18 04:14:44;;;;;;;28.65;11.52;;;10.60;99.90;;;;;;4859849;29;20060;-80
2023/02/18 04:17:11;;;;;;;22.90;10.95;;;10.60;99.90;;;;;;4851568;29;20581;-80
2023/02/18 04:19:38;;;;;;;25.25;10.15;;;10.70;99.90;;;;;;4848646;29;20078;-80
2023/02/18 04:22:06;;;;;;;26.88;12.15;;;10.70;99.90;;;;;;4845560;29;20395;-80
2023/02/18 04:24:33;;;;;;;25.27;11.00;;;10.70;99.90;;;;;;4832492;29;20125;-80
2023/02/18 04:27:00;;;;;;;25.20;10.15;;;10.70;99.90;;;;;;4854344;29;20042;-80
2023/02/18 04:29:27;;;;;;;23.50;10.65;;;10.70;99.90;;;;;;4854931;29;20050;-80
2023/02/18 04:31:57;;;;;;;22.15;11.23;;;10.70;99.90;;;;;;4858959;29;20052;-80
2023/02/18 04:34:24;;;;;;;25.52;12.07;;;10.70;99.90;;;;;;4851258;29;20081;-80
2023/02/18 04:36:51;;;;;;;23.30;10.65;;;10.70;99.90;;;;;;4832548;29;20050;-81
2023/02/18 04:39:18;;;;;;;25.90;11.45;;;10.70;99.90;;;;;;4835621;29;20054;-80
2023/02/18 04:41:45;;;;;;;28.73;11.85;;;10.70;99.90;;;;;;4842467;29;20121;-81
2023/02/18 04:44:12;;;;;;;26.80;12.75;;;10.70;99.90;;;;;;4837308;29;20049;-81
2023/02/18 04:46:39;;;;;;;25.88;12.55;;;10.70;99.90;;;;;;4842371;29;20509;-81
2023/02/18 04:49:06;;;;;;;24.83;10.43;;;10.70;99.90;;;;;;4848824;29;20494;-82
2023/02/18 04:51:33;;;;;;;23.58;9.43;;;10.70;99.90;;;;;;4831127;29;20056;-91
2023/02/18 04:54:00;;;;;;;22.33;9.40;;;10.70;99.90;;;;;;4840961;29;20083;-91
2023/02/18 04:56:30;;;;;;;21.80;9.32;;;10.70;99.90;;;;;;4828022;29;20060;-90
2023/02/18 04:58:58;;;;;;;21.58;8.23;;;10.70;99.90;;;;;;4864744;29;20076;-91
2023/02/18 05:01:25;;;;;;;19.77;8.10;;;10.70;99.90;;;;;;4831424;29;20110;-91
2023/02/18 05:03:52;;;;;;;18.60;8.45;;;10.70;99.90;;;;;;4839038;29;20053;-91
2023/02/18 05:06:19;;;;;;;17.27;7.05;;;10.60;99.90;;;;;;4849289;29;20080;-91
2023/02/18 05:08:46;;;;;;;14.82;7.13;;;10.70;99.90;;;;;;4847918;29;20049;-90
2023/02/18 05:11:13;;;;;;;16.25;6.90;;;10.60;99.90;;;;;;4837777;29;20102;-89
2023/02/18 05:13:40;;;;;;;16.83;7.57;;;10.60;99.90;;;;;;4830794;29;20061;-90
2023/02/18 05:16:07;;;;;;;16.73;6.88;;;10.60;99.90;;;;;;4828104;29;20057;-90
2023/02/18 05:18:34;;;;;;;14.88;6.60;;;10.70;99.90;;;;;;4843046;29;20136;-90
2023/02/18 05:21:02;;;;;;;13.25;6.00;;;10.60;99.90;;;;;;4815736;29;20046;-90
2023/02/18 05:23:29;;;;;;;10.98;4.88;;;10.60;99.90;;;;;;4831018;29;20046;-89
2023/02/18 05:25:56;;;;;;;13.75;5.72;;;10.60;99.90;;;;;;4845834;29;20506;-89
2023/02/18 05:28:25;;;;;;;12.50;6.40;;;10.70;99.90;;;;;;4845909;29;20705;-89
2023/02/18 05:30:55;;;;;;;12.13;5.43;;;10.70;99.90;;;;;;4830901;29;20517;-90
2023/02/18 05:33:22;;;;;;;11.00;5.07;;;10.70;99.90;;;;;;4842440;29;20430;-89
2023/02/18 05:35:49;;;;;;;11.30;5.78;;;10.70;99.90;;;;;;4827387;29;20562;-89
2023/02/18 05:38:16;;;;;;;12.45;5.93;;;10.60;99.90;;;;;;4829512;29;20057;-89
2023/02/18 05:40:46;;;;;;;13.05;5.90;;;10.70;99.90;;;;;;4830704;29;20049;-88
2023/02/18 05:43:13;;;;;;;13.65;6.88;;;10.70;99.90;;;;;;4836112;29;20077;-88
2023/02/18 05:45:40;;;;;;;12.68;6.57;;;10.60;99.90;;;;;;4848573;29;20096;-89
2023/02/18 05:48:08;;;;;;;11.27;5.35;;;10.60;99.90;;;;;;4863915;29;20044;-90
2023/02/18 05:50:35;;;;;;;10.82;5.30;;;10.60;99.90;;;;;;4835740;29;20045;-91
2023/02/18 05:53:02;;;;;;;10.73;5.32;;;10.60;99.90;;;;;;4863645;29;20085;-91
2023/02/18 05:55:36;;;;;;;9.38;4.78;;;10.60;99.90;;;;;;4859550;29;20053;-90
2023/02/18 05:58:07;;;;;;;8.35;4.57;;;10.60;99.90;;;;;;4830243;29;20080;-90
2023/02/18 06:00:34;;;;;;;9.93;4.82;;;10.60;99.90;;;;;;4829971;29;20084;-90
2023/02/18 06:03:03;;;;;;;8.73;4.78;;;10.50;99.90;;;;;;4830080;29;20049;-92
2023/02/18 06:05:30;;;;;;;7.82;3.72;;;10.50;99.90;;;;;;4844605;29;20053;-85
2023/02/18 06:08:01;;;;;;;9.18;4.07;;;10.50;99.90;;;;;;4844546;29;20077;-84
2023/02/18 06:10:28;;;;;;;7.15;3.50;;;10.50;99.90;;;;;;4844801;29;20041;-84
2023/02/18 06:12:55;;;;;;;8.88;4.25;;;10.50;99.90;;;;;;4844570;29;20045;-84
2023/02/18 06:15:22;;;;;;;7.63;3.50;;;10.50;99.90;;;;;;4829258;29;20049;-84
2023/02/18 06:17:49;;;;;;;6.32;3.67;;;10.50;99.90;;;;;;4844281;29;20050;-84
2023/02/18 06:20:16;;;;;;;5.82;3.28;;;10.50;99.90;;;;;;4829291;29;20053;-84
2023/02/18 06:22:44;;;;;;;7.85;3.92;;;10.50;99.90;;;;;;4816570;29;20058;-84
2023/02/18 06:25:11;;;;;;;8.52;4.28;;;10.50;99.90;;;;;;4838425;29;20088;-83
2023/02/18 06:27:38;;;;;;;11.98;6.13;;;10.40;99.90;;;;;;4849510;29;20053;-84
2023/02/18 06:30:06;;;;;;;10.30;5.15;;;10.40;99.90;;;;;;4862986;29;20068;-83
2023/02/18 06:32:34;;;;;;;10.20;5.93;;;10.40;99.90;;;;;;4847747;29;20053;-83
2023/02/18 06:35:02;;;;;;;11.07;6.22;;;10.40;99.90;;;;;;4859421;29;20052;-84
2023/02/18 06:37:29;;;;;;;10.27;6.03;;;10.40;99.90;;;;;;4844628;29;20046;-84
2023/02/18 06:39:56;;;;;;;12.27;6.53;;;10.40;99.90;;;;;;4829322;29;20046;-84
2023/02/18 06:42:23;;;;;;;10.63;6.00;;;10.40;99.90;;;;;;4836954;29;20050;-84
2023/02/18 06:44:50;;;;;;;11.93;5.82;;;10.40;99.90;;;;;;4826368;29;20050;-84
2023/02/18 06:47:21;;;;;;;10.82;5.13;;;10.40;99.90;;;;;;4832405;29;20076;-84
2023/02/18 06:49:48;;;;;;;14.55;7.53;;;10.40;99.90;;;;;;4862554;29;20049;-84
2023/02/18 06:52:18;;;;;;;11.95;6.05;;;10.40;99.90;;;;;;4847392;29;20139;-84
2023/02/18 06:54:45;;;;;;;12.07;5.85;;;10.40;99.90;;;;;;4851834;29;20072;-84
2023/02/18 06:57:15;;;;;;;13.32;6.70;;;10.40;99.90;;;;;;4844259;29;20169;-85
2023/02/18 06:59:42;;;;;;;12.13;5.15;;;10.40;99.90;;;;;;4834657;29;20076;-85
2023/02/18 07:02:12;;;;;;;11.90;5.28;;;10.30;99.90;;;;;;4841591;29;20050;-85
2023/02/18 07:04:39;;;;;;;11.95;5.43;;;10.30;99.90;;;;;;4847275;29;20957;-86
2023/02/18 07:07:06;;;;;;;11.85;5.07;;;10.30;99.90;;;;;;4856400;29;20463;-86
2023/02/18 07:09:34;;;;;;;9.15;4.68;;;10.30;99.90;;;;;;4863168;29;20053;-86
2023/02/18 07:12:01;;;;;;;8.98;4.50;;;10.30;99.90;;;;;;4847586;29;20056;-86
2023/02/18 07:14:28;;;;;;;9.85;4.97;;;10.30;99.90;;;;;;4864941;29;20045;-86
2023/02/18 07:16:58;;;;;;;10.88;4.10;;;10.30;99.90;;;;;;4866283;29;20048;-86
2023/02/18 07:19:28;;;;;;;10.35;5.05;;;10.30;99.90;;;;;;4851608;29;20109;-86
2023/02/18 07:21:58;;;;;;;11.00;4.28;;;10.30;99.90;;;;;;4851839;29;20133;-86
2023/02/18 07:24:26;;;;;;;11.27;5.60;;;10.30;99.90;;;;;;4832475;29;20080;-87
2023/02/18 07:26:54;;;;;;;13.75;7.22;;;10.30;99.90;;;;;;4832221;29;20081;-86
2023/02/18 07:29:28;;;;;;;14.73;8.00;;;10.30;99.90;;;;;;4832243;29;20060;-86
2023/02/18 07:31:56;;;;;;;14.50;7.00;;;10.20;99.90;;;;;;4832976;29;20528;-86
2023/02/18 07:34:29;;;;;;;14.45;6.78;;;10.20;99.90;;;;;;4841573;29;20049;-86
2023/02/18 07:36:59;;;;;;;14.40;7.57;;;10.30;99.90;;;;;;4866455;29;20040;-86
2023/02/18 07:39:26;;;;;;;18.35;8.43;;;10.20;99.90;;;;;;4854325;29;20076;-84
2023/02/18 07:41:56;;;;;;;14.77;7.47;;;10.20;99.90;;;;;;4846583;29;20057;-84
2023/02/18 07:44:26;;;;;;;13.50;6.90;;;10.20;99.90;;;;;;4861852;29;20048;-83
2023/02/18 07:46:53;;;;;;;16.98;7.88;;;10.20;99.90;;;;;;4859414;29;20105;-83
2023/02/18 07:49:23;;;;;;;14.70;5.93;;;10.20;99.90;;;;;;4831202;29;20259;-83
2023/02/18 07:51:50;;;;;;;12.40;6.97;;;10.20;99.90;;;;;;4846467;29;20057;-83
2023/02/18 07:54:17;;;;;;;14.70;7.45;;;10.20;99.90;;;;;;4846476;29;20053;-83
2023/02/18 07:56:45;;;;;;;15.15;7.43;;;10.20;99.90;;;;;;4846397;29;20049;-83
2023/02/18 07:59:12;;;;;;;15.85;7.85;;;10.20;99.90;;;;;;4846446;29;20041;-83
2023/02/18 08:01:40;;;;;;;16.85;7.05;;;10.20;99.90;;;;;;4839799;29;20452;-83
2023/02/18 08:04:10;;;;;;;23.25;8.48;;;10.20;99.90;;;;;;4847210;29;20049;-83
2023/02/18 08:06:40;;;;;;;15.23;7.45;;;10.20;99.90;;;;;;4827965;29;20042;-83
2023/02/18 08:09:07;;;;;;;22.20;8.13;;;10.10;99.90;;;;;;4840496;29;20042;-83
2023/02/18 08:11:40;;;;;;;13.57;7.45;;;10.10;99.90;;;;;;4849009;29;20105;-83
2023/02/18 08:14:07;;;;;;;15.75;6.82;;;10.10;99.90;;;;;;4876461;29;20041;-83
2023/02/18 08:16:35;;;;;;;16.85;7.43;;;10.00;99.90;;;;;;4846329;29;20106;-82
2023/02/18 08:19:03;;;;;;;15.40;6.32;;;10.00;99.90;;;;;;4861265;29;20053;-82
2023/02/18 08:21:30;;;;;;;10.95;5.40;;;10.00;99.90;;;;;;4844380;29;20050;-82
2023/02/18 08:23:59;;;;;;;16.10;5.38;;;10.10;99.90;;;;;;4842413;29;20050;-83
2023/02/18 08:26:26;;;;;;;19.20;6.35;;;10.10;99.90;;;;;;4827631;29;20528;-81
2023/02/18 08:28:53;;;;;;;11.57;5.13;;;10.10;99.90;;;;;;4845554;29;20109;-82
2023/02/18 08:31:24;;;;;;;18.15;5.15;;;10.10;99.90;;;;;;4845776;29;20406;-81
2023/02/18 08:33:53;;;;;;;14.50;4.55;;;10.10;99.90;;;;;;4854216;29;20041;-82
2023/02/18 08:36:20;;;;;;;12.77;4.93;;;10.10;99.90;;;;;;4849202;29;20414;-82
2023/02/18 08:38:48;;;;;;;11.95;4.60;;;10.00;99.90;;;;;;4847716;29;20045;-82
2023/02/18 08:41:17;;;;;;;14.50;4.65;;;10.00;99.90;;;;;;4832456;29;20136;-84
2023/02/18 08:43:46;;;;;;;15.18;5.65;;;9.90;99.90;;;;;;4868625;29;20075;-84
2023/02/18 08:46:16;;;;;;;14.98;5.07;;;9.90;99.90;;;;;;4852872;29;20050;-84
2023/02/18 08:49:03;;;;;;;16.52;5.03;;;9.90;99.90;;;;;;4835837;29;20052;-84
2023/02/18 08:51:35;;;;;;;14.32;5.63;;;9.80;99.90;;;;;;4831312;29;20128;-83
2023/02/18 08:54:36;;;;;;;14.77;5.15;;;9.80;99.90;;;;;;4859494;29;20045;-86
2023/02/18 08:57:13;;;;;;;11.05;4.45;;;9.80;99.90;;;;;;4846233;29;20106;-84
2023/02/18 08:59:40;;;;;;;13.73;4.85;;;9.80;99.90;;;;;;4821653;29;20561;-84
2023/02/18 09:02:12;;;;;;;16.35;5.38;;;9.80;99.90;;;;;;4847482;29;20418;-84
2023/02/18 09:04:45;;;;;;;19.50;5.32;;;9.80;99.90;;;;;;4855320;29;20566;-84
2023/02/18 09:07:31;;;;;;;12.68;4.55;;;9.80;99.90;;;;;;4844422;29;20049;-85
2023/02/18 09:10:58;;;;;;;15.32;4.32;;;9.70;99.90;;;;;;4845478;29;20046;-87
2023/02/18 09:13:19;;;;;;;17.75;4.53;;;9.70;99.90;;;;;;4818709;29;20563;-85
2023/02/18 09:15:58;;;;;;;16.63;4.28;;;9.60;99.90;;;;;;4819470;29;20050;-84
2023/02/18 09:18:26;;;;;;;11.25;3.67;;;9.60;99.90;;;;;;4813881;29;20149;-84
2023/02/18 09:20:58;;;;;;;9.35;2.83;;;9.60;99.90;;;;;;4811562;29;20510;-82
2023/02/18 09:23:28;;;;;;;6.55;2.13;;;9.60;99.90;;;;;;4844205;29;20060;-84
2023/02/18 09:25:56;;;;;;;7.57;2.25;;;9.60;99.90;;;;;;4843792;29;20055;-83
2023/02/18 09:28:24;;;;;;;10.30;2.30;;;9.50;99.90;;;;;;4822403;29;20070;-83
2023/02/18 09:30:52;;;;;;;15.63;1.90;;;9.60;99.90;;;;;;4807134;29;20050;-84
2023/02/18 09:33:26;;;;;;;9.52;2.78;;;9.50;99.90;;;;;;4796753;29;20077;-82
2023/02/18 09:35:54;;;;;;;10.75;2.72;;;9.50;99.90;;;;;;4832984;29;20561;-83
2023/02/18 09:38:21;;;;;;;18.88;3.33;;;9.50;99.90;;;;;;4828586;29;20045;-83
2023/02/18 09:40:53;;;;;;;15.85;3.42;;;9.50;99.90;;;;;;4835855;29;20417;-83
2023/02/18 09:43:34;;;;;;;11.52;4.30;;;9.50;99.90;;;;;;4826427;29;20115;-82
2023/02/18 09:46:03;;;;;;;14.50;5.50;;;9.50;99.90;;;;;;4835534;29;20049;-83
2023/02/18 09:48:36;;;;;;;16.48;4.43;;;9.50;99.90;;;;;;4857298;29;20153;-83
2023/02/18 09:51:03;;;;;;;11.63;4.05;;;9.50;99.90;;;;;;4829818;29;20075;-84
2023/02/18 09:53:31;;;;;;;15.98;4.40;;;9.60;99.90;;;;;;4861453;29;20049;-84
2023/02/18 09:56:00;;;;;;;14.80;4.63;;;9.60;99.90;;;;;;4863177;29;20059;-84
2023/02/18 09:58:32;;;;;;;11.20;4.03;;;9.60;99.90;;;;;;4834633;29;20050;-84
2023/02/18 10:01:37;;;;;;;13.38;3.83;;;9.60;99.90;;;;;;4848281;29;20049;-84
2023/02/18 10:04:17;;;;;;;11.48;3.95;;;9.60;99.90;;;;;;4832060;29;20053;-84
2023/02/18 10:06:51;;;;;;;14.65;3.47;;;9.60;99.90;;;;;;4832555;29;20050;-84
2023/02/18 10:09:32;;;;;;;8.00;2.70;;;9.60;99.90;;;;;;4826386;29;20049;-84
2023/02/18 10:12:12;;;;;;;14.80;3.67;;;9.60;99.90;;;;;;4825879;29;20050;-83
2023/02/18 10:14:40;;;;;;;12.35;3.08;;;9.60;99.90;;;;;;4856148;29;20041;-84
2023/02/18 10:17:12;;;;;;;11.82;4.00;;;9.60;99.90;;;;;;4847350;29;20041;-82
2023/02/18 10:19:40;;;;;;;;;;;9.60;99.90;;;;;;4859914;29;20042;-82
2023/02/18 10:22:10;;;;;;;10.95;2.72;;;9.60;99.90;;;;;;4859257;29;19930;-82
2023/02/18 10:25:03;;;;;;;14.30;3.05;;;9.60;99.90;;;;;;4846507;29;20483;-82
2023/02/18 10:27:35;;;;;;;11.38;3.42;;;9.60;99.90;;;;;;4843861;29;20049;-82
2023/02/18 10:30:16;;;;;;;16.67;2.90;;;9.60;99.90;;;;;;4859628;29;20132;-83
2023/02/18 10:32:44;;;;;;;10.57;3.63;;;9.60;99.90;;;;;;4847430;29;20153;-82
2023/02/18 10:35:17;;;;;;;13.75;3.03;;;9.60;99.90;;;;;;4841776;29;20066;-83
2023/02/18 10:38:16;;;;;;;12.50;2.47;;;9.60;99.90;;;;;;4852074;29;20466;-83
2023/02/18 10:41:08;;;;;;;9.48;2.33;;;9.60;99.90;;;;;;4875228;29;20562;-83
2023/02/18 10:43:51;;;;;;;14.93;3.70;;;9.60;99.90;;;;;;4877562;29;20060;-82
2023/02/18 10:46:26;;;;;;;10.32;3.20;;;9.60;99.90;;;;;;4838928;29;20085;-83
2023/02/18 10:49:24;;;;;;;9.02;2.80;;;9.60;99.90;;;;;;4865185;29;20049;-83
2023/02/18 10:51:56;;;;;;;7.22;2.55;;;9.70;99.90;;;;;;4865170;29;20113;-82
2023/02/18 10:54:45;;;;;;;8.68;2.95;;;9.70;99.90;;;;;;4865410;29;20052;-83
2023/02/18 10:57:23;;;;;;;9.95;2.90;;;9.70;99.90;;;;;;4849232;29;20046;-83
2023/02/18 11:00:15;;;;;;;8.52;2.53;;;9.70;99.90;;;;;;4836771;29;20050;-83
2023/02/18 11:02:42;;;;;;;10.60;3.25;;;9.60;99.90;;;;;;4866508;29;20137;-83
2023/02/18 11:05:24;;;;;;;12.95;3.40;;;9.60;99.90;;;;;;4849248;29;20502;-83
2023/02/18 11:08:06;;;;;;;10.73;2.85;;;9.70;99.90;;;;;;4841765;29;20064;-83
2023/02/18 11:10:37;;;;;;;14.55;3.78;;;9.70;99.90;;;;;;4854293;29;20510;-85
2023/02/18 11:13:11;;;;;;;14.73;3.47;;;9.70;99.90;;;;;;4833075;29;20054;-82
2023/02/18 11:15:54;;;;;;;13.82;4.00;;;9.70;99.90;;;;;;4847062;29;20069;-82
2023/02/18 11:18:37;;;;;;;17.63;4.57;;;9.80;99.90;;;;;;4857962;29;20077;-82
2023/02/18 11:21:19;;;;;;;14.63;3.47;;;9.70;99.90;;;;;;4863391;29;20045;-82
2023/02/18 11:23:50;;;;;;;13.13;4.97;;;9.80;99.90;;;;;;4847031;29;20056;-82
2023/02/18 11:26:31;;;;;;;9.70;4.38;;;9.80;99.90;;;;;;4852867;29;20045;-81
2023/02/18 11:29:06;;;;;;;15.57;4.50;;;9.80;99.90;;;;;;4872189;29;20055;-83
2023/02/18 11:31:46;;;;;;;14.07;4.32;;;9.90;99.90;;;;;;4857806;29;20085;-82
2023/02/18 11:34:20;;;;;;;11.25;3.58;;;9.90;99.90;;;;;;4851966;29;20049;-82
2023/02/18 11:36:49;;;;;;;10.68;4.35;;;9.90;99.90;;;;;;4831148;29;20041;-82
2023/02/18 11:39:27;;;;;;;15.13;4.90;;;9.90;99.90;;;;;;4836546;29;20046;-79
2023/02/18 11:41:57;;;;;;;14.98;4.28;;;10.00;99.90;;;;;;4841422;29;20049;-79
2023/02/18 11:44:33;;;;;;;11.90;4.85;;;10.00;99.90;;;;;;4874387;29;20160;-78
2023/02/18 11:47:04;;;;;;;16.10;4.68;;;10.00;99.90;;;;;;4846144;29;20161;-81
2023/02/18 11:49:33;;;;;;;13.60;4.45;;;10.10;99.90;;;;;;4831235;29;20105;-81
2023/02/18 11:52:27;;;;;;;12.90;4.50;;;10.10;99.90;;;;;;4846091;29;20041;-81
2023/02/18 11:55:04;;;;;;;15.52;5.07;;;10.20;99.90;;;;;;4862518;29;20080;-82
2023/02/18 11:57:38;;;;;;;9.50;5.05;;;10.20;99.90;;;;;;4852805;29;20055;-81
2023/02/18 12:00:42;;;;;;;13.82;4.55;;;10.30;99.90;;;;;;4853184;29;20050;-82
2023/02/18 12:03:24;;;;;;;17.58;5.80;;;10.30;99.90;;;;;;4835314;29;20418;-81
2023/02/18 12:06:04;;;;;;;13.48;5.20;;;10.30;99.90;;;;;;4851616;29;20053;-82
2023/02/18 12:08:46;;;;;;;17.42;6.90;;;10.30;99.90;;;;;;4857960;29;20060;-82
2023/02/18 12:11:27;;;;;;;18.02;5.43;;;10.30;99.90;;;;;;4859338;29;20135;-83
2023/02/18 12:13:56;;;;;;;17.40;6.10;;;10.30;99.90;;;;;;4862168;29;20053;-81
2023/02/18 12:17:00;;;;;;;15.50;6.85;;;10.40;99.90;;;;;;4847635;29;20605;-81
2023/02/18 12:19:42;;;;;;;22.13;7.60;;;10.40;99.90;;;;;;4849951;29;20060;-82
2023/02/18 12:22:40;;;;;;;10.60;5.53;;;10.40;99.90;;;;;;4845587;29;20156;-82
2023/02/18 12:25:43;;;;;;;12.20;6.10;;;10.40;99.90;;;;;;4830459;29;20057;-83
2023/02/18 12:28:58;;;;;;;17.30;5.78;;;10.40;99.90;;;;;;4846125;29;20071;-83
2023/02/18 12:32:22;;;;;;;13.55;5.95;;;10.40;99.90;;;;;;4852797;29;20513;-84
2023/02/18 12:35:34;;;;;;;13.95;8.00;;;10.40;99.90;;;;;;4794280;29;20056;-84
2023/02/18 12:38:50;;;;;;;14.90;7.15;;;10.30;99.90;;;;;;4846609;29;20052;-85
2023/02/18 12:42:12;;;;;;;14.20;6.90;;;10.30;99.90;;;;;;4851824;29;20405;-86
2023/02/18 12:45:17;;;;;;;;;;;;;;;;;;;;;
2023/02/18 12:48:45;;;;;;;15.80;7.45;;;10.30;99.90;;;;;;4851332;29;20049;-85
2023/02/18 12:51:46;;;;;;;18.83;8.07;;;10.40;99.90;;;;;;4827436;29;20057;-86
2023/02/18 12:54:30;;;;;;;15.75;7.43;;;10.40;99.90;;;;;;4834427;29;20061;-89
2023/02/18 12:57:24;;;;;;;11.88;6.35;;;10.40;99.90;;;;;;4861714;29;20062;-92
2023/02/18 13:00:41;;;;;;;19.13;8.95;;;10.40;99.90;;;;;;4831312;29;20053;-90
2023/02/18 13:03:43;;;;;;;17.50;6.75;;;10.40;99.90;;;;;;4828514;29;20069;-89
2023/02/18 13:11:44;;;;;;;19.70;6.43;;;10.40;99.90;;;;;;4861484;29;20047;-87
2023/02/18 13:14:31;;;;;;;16.25;7.88;;;10.40;99.90;;;;;;4831223;29;20068;-87
2023/02/18 13:17:30;;;;;;;13.25;7.82;;;10.50;99.90;;;;;;4822618;29;20042;-89
2023/02/18 13:20:25;;;;;;;19.70;7.53;;;10.50;99.90;;;;;;4828103;29;20054;-88
2023/02/18 13:22:52;;;;;;;16.17;7.32;;;10.60;99.90;;;;;;4827333;29;20053;-88